Terminal Aerodrome Forecast
Issued by NWS

Home | Current Version | Previous Version | Text Only | Print | Product List | Glossary On
Versions: 1 2 3 4 5 6 7 8 9 10 11 12 13 14 15 16 17 18 19 20 21 22 23
000
FTUS46 KPDT 122339
TAFALW
TAF
KALW 122339Z 1300/1324 VRB05KT P6SM BKN070
     FM130300 20009KT 4SM -SHRA BR SCT008 OVC020
     FM131000 20011KT 6SM BR BKN012 OVC035
     FM131600 20011KT P6SM SCT040 BKN070
     FM132200 22014G20KT P6SM SCT050 OVC090=

USA.gov is the U.S. government's official web portal to all federal, state and local government web resources and services.